Terminal Aerodrome Forecast
Issued by NWS

Home | Current Version | Previous Version | Text Only | Print | Product List | Glossary On
Versions: 1 2 3 4 5 6 7 8 9 10 11 12 13 14 15 16 17 18 19 20 21 22
000
FTUS46 KOTX 240526
TAFMWH
TAF
KMWH 240526Z 2406/2506 03005KT P6SM SCT050 BKN070 OVC100
     FM241000 03005KT P6SM -RA OVC050
     FM241400 VRB04KT 6SM -RA BR BKN030 OVC050
     FM241800 16004KT P6SM SCT025 BKN040 OVC060
     FM242200 19009G17KT P6SM -SHRA SCT040 BKN080
     FM250100 19005KT P6SM BKN100=

USA.gov is the U.S. government's official web portal to all federal, state and local government web resources and services.